BTK6350 WIII-WAHS
Flight info
| Callsign | BTK6350 |
|---|---|
| Flight time | 0h 42m |
| Altitude | 25000 |
| Route | CA |
| Aircraft | A320/M-SDE3FGHIRWY/LB1 |
Departure
| Time | 2026-04-24 16:05 |
|---|---|
| Airport | Soekarno-Hatta International Airport (WIII) |
Arrival
| Time | 2026-04-24 16:47 |
|---|---|
| Airport | Jenderal Ahmad Yani Airport (WAHS) |
| Time | Latitude | Longitude | Altitude | Speed | Heading |
|---|---|---|---|---|---|
| 2026-04-24 15:45 | -6.12437 | 106.64931 | 38 ft | 0 kts | 69° |
| 2026-04-24 15:55 | -6.12442 | 106.64916 | 36 ft | 4 kts | 70° |
| 2026-04-24 15:55 | -6.12451 | 106.64890 | 36 ft | 4 kts | 73° |
| 2026-04-24 15:55 | -6.12458 | 106.64864 | 38 ft | 4 kts | 78° |
| 2026-04-24 15:56 | -6.12463 | 106.64838 | 34 ft | 4 kts | 92° |
| 2026-04-24 15:56 | -6.12457 | 106.64815 | 37 ft | 3 kts | 152° |
| 2026-04-24 15:56 | -6.12450 | 106.64812 | 37 ft | 0 kts | 159° |
| 2026-04-24 15:58 | -6.12451 | 106.64812 | 37 ft | 1 kts | 159° |
| 2026-04-24 15:58 | -6.12478 | 106.64823 | 36 ft | 7 kts | 159° |
| 2026-04-24 15:59 | -6.12543 | 106.64848 | 36 ft | 13 kts | 159° |
| 2026-04-24 15:59 | -6.12633 | 106.64825 | 38 ft | 18 kts | 243° |
| 2026-04-24 15:59 | -6.12679 | 106.64706 | 36 ft | 18 kts | 249° |
| 2026-04-24 15:59 | -6.12724 | 106.64595 | 36 ft | 16 kts | 241° |
| 2026-04-24 16:00 | -6.12820 | 106.64585 | 38 ft | 15 kts | 158° |
| 2026-04-24 16:00 | -6.12924 | 106.64627 | 38 ft | 17 kts | 158° |
| 2026-04-24 16:00 | -6.13043 | 106.64675 | 38 ft | 19 kts | 158° |
| 2026-04-24 16:00 | -6.13174 | 106.64727 | 38 ft | 21 kts | 159° |
| 2026-04-24 16:01 | -6.13319 | 106.64785 | 36 ft | 23 kts | 159° |
| 2026-04-24 16:01 | -6.13473 | 106.64846 | 36 ft | 25 kts | 158° |
| 2026-04-24 16:01 | -6.13634 | 106.64911 | 38 ft | 21 kts | 158° |
| 2026-04-24 16:01 | -6.13764 | 106.64962 | 37 ft | 17 kts | 160° |
| 2026-04-24 16:02 | -6.13841 | 106.64894 | 38 ft | 16 kts | 248° |
| 2026-04-24 16:02 | -6.13881 | 106.64794 | 38 ft | 15 kts | 248° |
| 2026-04-24 16:02 | -6.13918 | 106.64703 | 37 ft | 14 kts | 248° |
| 2026-04-24 16:02 | -6.13957 | 106.64604 | 38 ft | 17 kts | 249° |
| 2026-04-24 16:03 | -6.14005 | 106.64483 | 36 ft | 20 kts | 248° |
| 2026-04-24 16:03 | -6.14060 | 106.64349 | 38 ft | 21 kts | 247° |
| 2026-04-24 16:03 | -6.14133 | 106.64281 | 39 ft | 13 kts | 185° |
| 2026-04-24 16:03 | -6.14174 | 106.64311 | 39 ft | 5 kts | 140° |
| 2026-04-24 16:04 | -6.14194 | 106.64332 | 40 ft | 3 kts | 129° |
| 2026-04-24 16:04 | -6.14211 | 106.64354 | 40 ft | 6 kts | 129° |
| 2026-04-24 16:04 | -6.14233 | 106.64413 | 40 ft | 12 kts | 75° |
| 2026-04-24 16:04 | -6.14179 | 106.64533 | 38 ft | 38 kts | 65° |
| 2026-04-24 16:05 | -6.13629 | 106.65927 | 47 ft | 163 kts | 68° |
| 2026-04-24 16:05 | -6.13196 | 106.66989 | 725 ft | 164 kts | 69° |
| 2026-04-24 16:06 | -6.12361 | 106.69081 | 2060 ft | 168 kts | 69° |
| 2026-04-24 16:06 | -6.11902 | 106.70243 | 2402 ft | 190 kts | 69° |
| 2026-04-24 16:06 | -6.10804 | 106.73030 | 3103 ft | 240 kts | 70° |
| 2026-04-24 16:07 | -6.10540 | 106.74739 | 3666 ft | 256 kts | 93° |
| 2026-04-24 16:07 | -6.10615 | 106.76541 | 4571 ft | 260 kts | 89° |
| 2026-04-24 16:07 | -6.10502 | 106.80228 | 6341 ft | 268 kts | 86° |
| 2026-04-24 16:08 | -6.10417 | 106.82117 | 7168 ft | 272 kts | 86° |
| 2026-04-24 16:08 | -6.10269 | 106.85973 | 8822 ft | 280 kts | 87° |
| 2026-04-24 16:09 | -6.10154 | 106.89925 | 10280 ft | 294 kts | 87° |
| 2026-04-24 16:09 | -6.10100 | 106.92059 | 10538 ft | 317 kts | 87° |
| 2026-04-24 16:09 | -6.10062 | 106.93593 | 10693 ft | 332 kts | 88° |
| 2026-04-24 16:09 | -6.09986 | 106.96728 | 11417 ft | 344 kts | 88° |
| 2026-04-24 16:10 | -6.11936 | 107.03614 | 13419 ft | 361 kts | 130° |
| 2026-04-24 16:11 | -6.16267 | 107.06234 | 14602 ft | 374 kts | 160° |
| 2026-04-24 16:11 | -6.18747 | 107.07071 | 15187 ft | 378 kts | 160° |
| 2026-04-24 16:11 | -6.21249 | 107.07922 | 15778 ft | 381 kts | 159° |
| 2026-04-24 16:12 | -6.26304 | 107.09661 | 16917 ft | 388 kts | 159° |
| 2026-04-24 16:12 | -6.28867 | 107.10548 | 17478 ft | 391 kts | 159° |
| 2026-04-24 16:12 | -6.34057 | 107.12342 | 18513 ft | 398 kts | 159° |
| 2026-04-24 16:13 | -6.36649 | 107.13236 | 18984 ft | 400 kts | 159° |
| 2026-04-24 16:13 | -6.41441 | 107.16042 | 19888 ft | 402 kts | 136° |
| 2026-04-24 16:14 | -6.44744 | 107.20557 | 20762 ft | 405 kts | 115° |
| 2026-04-24 16:14 | -6.45983 | 107.23108 | 21190 ft | 408 kts | 115° |
| 2026-04-24 16:14 | -6.48091 | 107.27426 | 21924 ft | 413 kts | 115° |
| 2026-04-24 16:15 | -6.48931 | 107.29145 | 22198 ft | 415 kts | 115° |
| 2026-04-24 16:15 | -6.52351 | 107.36143 | 23278 ft | 423 kts | 115° |
| 2026-04-24 16:16 | -6.54519 | 107.40587 | 23868 ft | 427 kts | 115° |
| 2026-04-24 16:16 | -6.55801 | 107.43286 | 24212 ft | 429 kts | 112° |
| 2026-04-24 16:17 | -6.57524 | 107.52128 | 24907 ft | 431 kts | 96° |
| 2026-04-24 16:17 | -6.58227 | 107.58085 | 24924 ft | 428 kts | 97° |
| 2026-04-24 16:18 | -6.58934 | 107.64024 | 24928 ft | 427 kts | 97° |
| 2026-04-24 16:18 | -6.59650 | 107.69962 | 24927 ft | 427 kts | 97° |
| 2026-04-24 16:18 | -6.60001 | 107.72886 | 24925 ft | 427 kts | 97° |
| 2026-04-24 16:19 | -6.60709 | 107.78818 | 24924 ft | 427 kts | 97° |
| 2026-04-24 16:19 | -6.61061 | 107.81783 | 24929 ft | 427 kts | 97° |
| 2026-04-24 16:20 | -6.61763 | 107.87714 | 24926 ft | 427 kts | 97° |
| 2026-04-24 16:20 | -6.62465 | 107.93642 | 24926 ft | 427 kts | 97° |
| 2026-04-24 16:20 | -6.62818 | 107.96607 | 24923 ft | 427 kts | 97° |
| 2026-04-24 16:21 | -6.63522 | 108.02543 | 24924 ft | 427 kts | 97° |
| 2026-04-24 16:21 | -6.63872 | 108.05513 | 24920 ft | 427 kts | 96° |
| 2026-04-24 16:21 | -6.64220 | 108.08481 | 24925 ft | 427 kts | 96° |
| 2026-04-24 16:22 | -6.64569 | 108.11447 | 24916 ft | 427 kts | 97° |
| 2026-04-24 16:22 | -6.65261 | 108.17346 | 24919 ft | 427 kts | 96° |
| 2026-04-24 16:22 | -6.65609 | 108.20310 | 24918 ft | 427 kts | 97° |
| 2026-04-24 16:23 | -6.65961 | 108.23276 | 24922 ft | 427 kts | 97° |
| 2026-04-24 16:23 | -6.66314 | 108.26243 | 24923 ft | 427 kts | 97° |
| 2026-04-24 16:23 | -6.66664 | 108.29210 | 24922 ft | 427 kts | 96° |
| 2026-04-24 16:24 | -6.67361 | 108.35137 | 24918 ft | 427 kts | 96° |
| 2026-04-24 16:24 | -6.67709 | 108.38095 | 24917 ft | 426 kts | 96° |
| 2026-04-24 16:24 | -6.68059 | 108.41062 | 24916 ft | 426 kts | 96° |
| 2026-04-24 16:24 | -6.68407 | 108.44023 | 24914 ft | 426 kts | 96° |
| 2026-04-24 16:25 | -6.68752 | 108.46980 | 24911 ft | 426 kts | 96° |
| 2026-04-24 16:25 | -6.69095 | 108.49944 | 24910 ft | 426 kts | 96° |
| 2026-04-24 16:25 | -6.69441 | 108.52905 | 24910 ft | 426 kts | 96° |
| 2026-04-24 16:26 | -6.70183 | 108.58820 | 24906 ft | 426 kts | 98° |
| 2026-04-24 16:26 | -6.70638 | 108.61769 | 24906 ft | 427 kts | 99° |
| 2026-04-24 16:26 | -6.71626 | 108.67615 | 24904 ft | 427 kts | 99° |
| 2026-04-24 16:27 | -6.72127 | 108.70558 | 24900 ft | 427 kts | 99° |
| 2026-04-24 16:27 | -6.72616 | 108.73508 | 24904 ft | 427 kts | 99° |
| 2026-04-24 16:27 | -6.73095 | 108.76452 | 24901 ft | 427 kts | 99° |
| 2026-04-24 16:27 | -6.73567 | 108.79402 | 24905 ft | 427 kts | 99° |
| 2026-04-24 16:28 | -6.74036 | 108.82350 | 24906 ft | 427 kts | 99° |
| 2026-04-24 16:28 | -6.74502 | 108.85295 | 24902 ft | 427 kts | 99° |
| 2026-04-24 16:28 | -6.75435 | 108.91195 | 24901 ft | 427 kts | 99° |
| 2026-04-24 16:29 | -6.75905 | 108.94141 | 24901 ft | 427 kts | 99° |
| 2026-04-24 16:29 | -6.76375 | 108.97086 | 24900 ft | 426 kts | 99° |
| 2026-04-24 16:29 | -6.77320 | 109.02964 | 24639 ft | 423 kts | 99° |
| 2026-04-24 16:30 | -6.78254 | 109.08786 | 24201 ft | 420 kts | 98° |
| 2026-04-24 16:30 | -6.78714 | 109.11681 | 23984 ft | 418 kts | 98° |
| 2026-04-24 16:30 | -6.79169 | 109.14558 | 23637 ft | 414 kts | 98° |
| 2026-04-24 16:31 | -6.79590 | 109.17370 | 23033 ft | 411 kts | 97° |
| 2026-04-24 16:31 | -6.79989 | 109.20199 | 22504 ft | 406 kts | 97° |
| 2026-04-24 16:31 | -6.80371 | 109.22999 | 22005 ft | 401 kts | 97° |
| 2026-04-24 16:31 | -6.80749 | 109.25771 | 21509 ft | 397 kts | 97° |
| 2026-04-24 16:32 | -6.81124 | 109.28505 | 21019 ft | 393 kts | 97° |
| 2026-04-24 16:32 | -6.81501 | 109.31218 | 20537 ft | 390 kts | 97° |
| 2026-04-24 16:32 | -6.81881 | 109.33910 | 20044 ft | 387 kts | 97° |
| 2026-04-24 16:32 | -6.82259 | 109.36581 | 19552 ft | 385 kts | 97° |
| 2026-04-24 16:33 | -6.82636 | 109.39237 | 19050 ft | 383 kts | 97° |
| 2026-04-24 16:33 | -6.83012 | 109.41889 | 18545 ft | 382 kts | 97° |
| 2026-04-24 16:33 | -6.83386 | 109.44530 | 18001 ft | 382 kts | 97° |
| 2026-04-24 16:33 | -6.83757 | 109.47168 | 17449 ft | 380 kts | 97° |
| 2026-04-24 16:34 | -6.84126 | 109.49793 | 16932 ft | 378 kts | 97° |
| 2026-04-24 16:34 | -6.84491 | 109.52406 | 16411 ft | 376 kts | 97° |
| 2026-04-24 16:34 | -6.84852 | 109.55002 | 15899 ft | 374 kts | 97° |
| 2026-04-24 16:34 | -6.85213 | 109.57591 | 15378 ft | 373 kts | 97° |
| 2026-04-24 16:35 | -6.85576 | 109.60169 | 14868 ft | 372 kts | 97° |
| 2026-04-24 16:35 | -6.85935 | 109.62705 | 14361 ft | 371 kts | 97° |
| 2026-04-24 16:35 | -6.86299 | 109.65270 | 13844 ft | 370 kts | 97° |
| 2026-04-24 16:35 | -6.86661 | 109.67827 | 13288 ft | 369 kts | 97° |
| 2026-04-24 16:36 | -6.87018 | 109.70373 | 12752 ft | 366 kts | 97° |
| 2026-04-24 16:36 | -6.87374 | 109.72901 | 12228 ft | 363 kts | 97° |
| 2026-04-24 16:36 | -6.87724 | 109.75393 | 11810 ft | 357 kts | 97° |
| 2026-04-24 16:36 | -6.88069 | 109.77857 | 11281 ft | 354 kts | 97° |
| 2026-04-24 16:37 | -6.88411 | 109.80301 | 10754 ft | 352 kts | 97° |
| 2026-04-24 16:37 | -6.88749 | 109.82726 | 10417 ft | 344 kts | 97° |
| 2026-04-24 16:37 | -6.89075 | 109.85059 | 10299 ft | 330 kts | 97° |
| 2026-04-24 16:37 | -6.89380 | 109.87298 | 10183 ft | 317 kts | 94° |
| 2026-04-24 16:38 | -6.89402 | 109.88746 | 10108 ft | 308 kts | 85° |
| 2026-04-24 16:38 | -6.89274 | 109.89816 | 10042 ft | 301 kts | 82° |
| 2026-04-24 16:38 | -6.89022 | 109.91883 | 9765 ft | 296 kts | 80° |
| 2026-04-24 16:39 | -6.88658 | 109.93912 | 9431 ft | 292 kts | 78° |
| 2026-04-24 16:39 | -6.88248 | 109.95909 | 9045 ft | 291 kts | 77° |
| 2026-04-24 16:39 | -6.87832 | 109.97894 | 8667 ft | 289 kts | 77° |
| 2026-04-24 16:39 | -6.87428 | 109.99873 | 8278 ft | 288 kts | 78° |
| 2026-04-24 16:40 | -6.87043 | 110.01815 | 7887 ft | 285 kts | 78° |
| 2026-04-24 16:40 | -6.86666 | 110.03779 | 7264 ft | 281 kts | 78° |
| 2026-04-24 16:40 | -6.86311 | 110.05676 | 6631 ft | 278 kts | 79° |
| 2026-04-24 16:40 | -6.85960 | 110.07574 | 6004 ft | 275 kts | 79° |
| 2026-04-24 16:41 | -6.85612 | 110.09459 | 5328 ft | 272 kts | 79° |
| 2026-04-24 16:41 | -6.85268 | 110.11324 | 4650 ft | 270 kts | 79° |
| 2026-04-24 16:41 | -6.84927 | 110.13181 | 3932 ft | 268 kts | 79° |
| 2026-04-24 16:41 | -6.84592 | 110.14990 | 3579 ft | 253 kts | 79° |
| 2026-04-24 16:42 | -6.84283 | 110.16648 | 3521 ft | 231 kts | 79° |
| 2026-04-24 16:42 | -6.83998 | 110.18177 | 3444 ft | 217 kts | 80° |
| 2026-04-24 16:42 | -6.83735 | 110.19636 | 3354 ft | 208 kts | 84° |
| 2026-04-24 16:42 | -6.83825 | 110.21048 | 3278 ft | 198 kts | 105° |
| 2026-04-24 16:43 | -6.84379 | 110.22265 | 3203 ft | 189 kts | 123° |
| 2026-04-24 16:43 | -6.85218 | 110.23273 | 3123 ft | 189 kts | 129° |
| 2026-04-24 16:43 | -6.86066 | 110.24283 | 2927 ft | 188 kts | 129° |
| 2026-04-24 16:43 | -6.86909 | 110.25284 | 2703 ft | 187 kts | 129° |
| 2026-04-24 16:44 | -6.87737 | 110.26265 | 2466 ft | 184 kts | 129° |
| 2026-04-24 16:44 | -6.88556 | 110.27236 | 2240 ft | 179 kts | 129° |
| 2026-04-24 16:44 | -6.89337 | 110.28160 | 2031 ft | 170 kts | 129° |
| 2026-04-24 16:44 | -6.90088 | 110.29051 | 1813 ft | 160 kts | 129° |
| 2026-04-24 16:45 | -6.90771 | 110.29859 | 1614 ft | 146 kts | 129° |
| 2026-04-24 16:45 | -6.91416 | 110.30623 | 1413 ft | 141 kts | 129° |
| 2026-04-24 16:45 | -6.92045 | 110.31369 | 1253 ft | 139 kts | 130° |
| 2026-04-24 16:45 | -6.92671 | 110.32110 | 1079 ft | 139 kts | 130° |
| 2026-04-24 16:46 | -6.93294 | 110.32848 | 920 ft | 138 kts | 130° |
| 2026-04-24 16:46 | -6.93916 | 110.33585 | 747 ft | 138 kts | 130° |
| 2026-04-24 16:46 | -6.94538 | 110.34322 | 571 ft | 138 kts | 131° |
| 2026-04-24 16:46 | -6.95153 | 110.35060 | 361 ft | 138 kts | 129° |
| 2026-04-24 16:47 | -6.95766 | 110.35793 | 162 ft | 136 kts | 131° |
| 2026-04-24 16:47 | -6.96378 | 110.36515 | -8 ft | 135 kts | 132° |
| 2026-04-24 16:47 | -6.96874 | 110.37101 | -23 ft | 69 kts | 129° |
| 2026-04-24 16:47 | -6.97073 | 110.37339 | -23 ft | 19 kts | 130° |
| 2026-04-24 16:48 | -6.97068 | 110.37442 | -20 ft | 14 kts | 45° |
| 2026-04-24 16:48 | -6.97023 | 110.37481 | -13 ft | 5 kts | 40° |
| 2026-04-24 16:48 | -6.97005 | 110.37496 | -12 ft | 3 kts | 40° |
| 2026-04-24 16:48 | -6.96978 | 110.37519 | -10 ft | 7 kts | 40° |
| 2026-04-24 16:49 | -6.96927 | 110.37559 | -9 ft | 11 kts | 24° |
| 2026-04-24 16:49 | -6.96856 | 110.37504 | -9 ft | 16 kts | 310° |
| 2026-04-24 16:49 | -6.96804 | 110.37443 | -8 ft | 7 kts | 310° |
| 2026-04-24 16:49 | -6.96776 | 110.37410 | -9 ft | 6 kts | 310° |
| 2026-04-24 16:50 | -6.96759 | 110.37389 | -8 ft | 5 kts | 310° |
| 2026-04-24 16:50 | -6.96727 | 110.37390 | -6 ft | 3 kts | 38° |
| 2026-04-24 16:50 | -6.96713 | 110.37402 | -8 ft | 4 kts | 38° |
| 2026-04-24 16:50 | -6.96690 | 110.37421 | -6 ft | 0 kts | 41° |